sensor_id;sensor_type;location;lat;lon;timestamp;pressure;altitude;pressure_sealevel;temperature;humidity
39105;BME280;46464;51.154;13.812;2023-07-13T00:01:48;51524.59;;;-146.96;56.34
39105;BME280;46464;51.154;13.812;2023-07-13T00:04:20;51565.28;;;-146.96;55.94
39105;BME280;46464;51.154;13.812;2023-07-13T00:06:47;51579.50;;;-146.96;55.84
39105;BME280;46464;51.154;13.812;2023-07-13T00:09:15;51546.97;;;-146.96;56.08
39105;BME280;46464;51.154;13.812;2023-07-13T00:11:43;51553.06;;;-146.96;56.68
39105;BME280;46464;51.154;13.812;2023-07-13T00:14:11;51561.22;;;-146.96;56.96
39105;BME280;46464;51.154;13.812;2023-07-13T00:16:39;51577.47;;;-146.96;57.38
39105;BME280;46464;51.154;13.812;2023-07-13T00:19:10;51561.22;;;-146.96;57.73
39105;BME280;46464;51.154;13.812;2023-07-13T00:21:38;51579.50;;;-146.96;57.82
39105;BME280;46464;51.154;13.812;2023-07-13T00:24:06;51589.69;;;-146.96;57.87
39105;BME280;46464;51.154;13.812;2023-07-13T00:26:33;51553.06;;;-146.96;58.49
39105;BME280;46464;51.154;13.812;2023-07-13T00:29:00;51583.59;;;-146.96;58.38
39105;BME280;46464;51.154;13.812;2023-07-13T00:31:26;51573.41;;;-146.96;58.38
39105;BME280;46464;51.154;13.812;2023-07-13T00:33:53;51610.03;;;-146.96;58.23
39105;BME280;46464;51.154;13.812;2023-07-13T00:36:20;51581.56;;;-146.96;58.27
39105;BME280;46464;51.154;13.812;2023-07-13T00:38:47;51605.97;;;-146.96;58.54
39105;BME280;46464;51.154;13.812;2023-07-13T00:41:13;51553.06;;;-146.96;58.67
39105;BME280;46464;51.154;13.812;2023-07-13T00:43:40;51597.81;;;-146.96;59.05
39105;BME280;46464;51.154;13.812;2023-07-13T00:46:14;51591.72;;;-146.96;59.16
39105;BME280;46464;51.154;13.812;2023-07-13T00:48:42;51575.44;;;-146.96;59.22
39105;BME280;46464;51.154;13.812;2023-07-13T00:51:10;51605.97;;;-146.96;58.97
39105;BME280;46464;51.154;13.812;2023-07-13T00:53:37;51595.78;;;-146.96;59.50
39105;BME280;46464;51.154;13.812;2023-07-13T00:56:04;51583.59;;;-146.96;59.87
39105;BME280;46464;51.154;13.812;2023-07-13T00:58:31;51616.13;;;-146.96;59.53
39105;BME280;46464;51.154;13.812;2023-07-13T01:00:58;51591.72;;;-146.96;58.12
39105;BME280;46464;51.154;13.812;2023-07-13T01:03:24;51614.09;;;-146.96;57.25
39105;BME280;46464;51.154;13.812;2023-07-13T01:05:51;51561.22;;;-146.96;56.31
39105;BME280;46464;51.154;13.812;2023-07-13T01:08:21;51573.41;;;-146.96;56.85
39105;BME280;46464;51.154;13.812;2023-07-13T01:10:52;51569.34;;;-146.96;56.97
39105;BME280;46464;51.154;13.812;2023-07-13T01:13:19;51583.59;;;-146.96;56.99
39105;BME280;46464;51.154;13.812;2023-07-13T01:15:47;51589.69;;;-146.96;57.00
39105;BME280;46464;51.154;13.812;2023-07-13T01:18:23;51569.34;;;-146.96;57.12
39105;BME280;46464;51.154;13.812;2023-07-13T01:20:54;51546.97;;;-146.96;57.13
39105;BME280;46464;51.154;13.812;2023-07-13T01:23:21;51591.72;;;-146.96;57.49
39105;BME280;46464;51.154;13.812;2023-07-13T01:25:48;51601.91;;;-146.96;57.47
39105;BME280;46464;51.154;13.812;2023-07-13T01:28:15;51593.75;;;-146.96;57.48
39105;BME280;46464;51.154;13.812;2023-07-13T01:30:44;51579.50;;;-146.96;57.19
39105;BME280;46464;51.154;13.812;2023-07-13T01:33:14;51591.72;;;-146.96;58.03
39105;BME280;46464;51.154;13.812;2023-07-13T01:35:41;51569.34;;;-146.96;59.27
39105;BME280;46464;51.154;13.812;2023-07-13T01:38:07;51591.72;;;-146.96;60.49
39105;BME280;46464;51.154;13.812;2023-07-13T01:40:36;51603.94;;;-146.96;60.06
39105;BME280;46464;51.154;13.812;2023-07-13T01:43:03;51620.19;;;-146.96;60.21
39105;BME280;46464;51.154;13.812;2023-07-13T01:45:29;51608.00;;;-146.96;59.92
39105;BME280;46464;51.154;13.812;2023-07-13T01:47:56;51614.09;;;-146.96;60.15
39105;BME280;46464;51.154;13.812;2023-07-13T01:50:25;51634.44;;;-146.96;60.01
39105;BME280;46464;51.154;13.812;2023-07-13T01:52:52;51622.25;;;-146.96;60.09
39105;BME280;46464;51.154;13.812;2023-07-13T01:55:20;51638.50;;;-146.96;60.50
39105;BME280;46464;51.154;13.812;2023-07-13T01:57:47;51610.03;;;-146.96;60.37
39105;BME280;46464;51.154;13.812;2023-07-13T02:00:14;51618.16;;;-146.96;60.77
39105;BME280;46464;51.154;13.812;2023-07-13T02:02:40;51624.28;;;-146.96;60.51
39105;BME280;46464;51.154;13.812;2023-07-13T02:05:12;51608.00;;;-146.96;61.11
39105;BME280;46464;51.154;13.812;2023-07-13T02:07:39;51597.81;;;-146.96;61.23
39105;BME280;46464;51.154;13.812;2023-07-13T02:10:07;51640.53;;;-146.96;61.41
39105;BME280;46464;51.154;13.812;2023-07-13T02:12:35;51630.38;;;-146.96;61.44
39105;BME280;46464;51.154;13.812;2023-07-13T02:15:03;51595.78;;;-146.96;61.97
39105;BME280;46464;51.154;13.812;2023-07-13T02:17:30;51644.63;;;-146.96;61.94
39105;BME280;46464;51.154;13.812;2023-07-13T02:19:56;51636.47;;;-146.96;61.90
39105;BME280;46464;51.154;13.812;2023-07-13T02:22:23;51630.38;;;-146.96;61.91
39105;BME280;46464;51.154;13.812;2023-07-13T02:24:50;51603.94;;;-146.96;62.10
39105;BME280;46464;51.154;13.812;2023-07-13T02:27:16;51648.69;;;-146.96;62.35
39105;BME280;46464;51.154;13.812;2023-07-13T02:29:42;51622.25;;;-146.96;62.32
39105;BME280;46464;51.154;13.812;2023-07-13T02:32:09;51610.03;;;-146.96;62.96
39105;BME280;46464;51.154;13.812;2023-07-13T02:34:36;51628.34;;;-146.96;62.88
39105;BME280;46464;51.154;13.812;2023-07-13T02:37:02;51656.81;;;-146.96;63.05
39105;BME280;46464;51.154;13.812;2023-07-13T02:39:29;51632.41;;;-146.96;63.50
39105;BME280;46464;51.154;13.812;2023-07-13T02:41:56;51701.56;;;-146.96;63.76
39105;BME280;46464;51.154;13.812;2023-07-13T02:44:22;51677.16;;;-146.96;64.11
39105;BME280;46464;51.154;13.812;2023-07-13T02:46:49;51626.31;;;-146.96;64.13
39105;BME280;46464;51.154;13.812;2023-07-13T02:49:15;51685.31;;;-146.96;64.19
39105;BME280;46464;51.154;13.812;2023-07-13T02:51:42;51683.28;;;-146.96;64.30
39105;BME280;46464;51.154;13.812;2023-07-13T02:54:09;51664.97;;;-146.96;64.66
39105;BME280;46464;51.154;13.812;2023-07-13T02:56:36;51628.34;;;-146.96;64.90
39105;BME280;46464;51.154;13.812;2023-07-13T02:59:05;51679.19;;;-146.96;64.96
39105;BME280;46464;51.154;13.812;2023-07-13T03:01:31;51654.78;;;-146.96;65.18
39105;BME280;46464;51.154;13.812;2023-07-13T03:03:58;51685.31;;;-146.96;65.54
39105;BME280;46464;51.154;13.812;2023-07-13T03:06:25;51658.84;;;-146.96;66.04
39105;BME280;46464;51.154;13.812;2023-07-13T03:08:52;51660.88;;;-146.96;66.82
39105;BME280;46464;51.154;13.812;2023-07-13T03:11:19;51660.88;;;-146.96;66.96
39105;BME280;46464;51.154;13.812;2023-07-13T03:13:46;51679.19;;;-146.96;66.35
39105;BME280;46464;51.154;13.812;2023-07-13T03:16:14;51654.78;;;-146.96;66.48
39105;BME280;46464;51.154;13.812;2023-07-13T03:18:46;51691.41;;;-146.96;66.15
39105;BME280;46464;51.154;13.812;2023-07-13T03:21:13;51675.13;;;-146.96;66.05
39105;BME280;46464;51.154;13.812;2023-07-13T03:23:39;51667.00;;;-146.96;66.40
39105;BME280;46464;51.154;13.812;2023-07-13T03:26:15;51662.94;;;-146.96;67.11
39105;BME280;46464;51.154;13.812;2023-07-13T03:28:42;51648.69;;;-146.96;66.85
39105;BME280;46464;51.154;13.812;2023-07-13T03:31:12;51679.19;;;-146.96;66.56
39105;BME280;46464;51.154;13.812;2023-07-13T03:33:39;51707.69;;;-146.96;66.68
39105;BME280;46464;51.154;13.812;2023-07-13T03:36:06;51681.22;;;-146.96;66.93
39105;BME280;46464;51.154;13.812;2023-07-13T03:38:33;51732.09;;;-146.96;66.89
39105;BME280;46464;51.154;13.812;2023-07-13T03:41:00;51697.50;;;-146.96;67.10
39105;BME280;46464;51.154;13.812;2023-07-13T03:43:26;51667.00;;;-146.96;67.29
39105;BME280;46464;51.154;13.812;2023-07-13T03:45:53;51687.34;;;-146.96;68.25
39105;BME280;46464;51.154;13.812;2023-07-13T03:48:19;51697.50;;;-146.96;67.79
39105;BME280;46464;51.154;13.812;2023-07-13T03:50:47;51677.16;;;-146.96;67.80
39105;BME280;46464;51.154;13.812;2023-07-13T03:53:13;51669.03;;;-146.96;68.41
39105;BME280;46464;51.154;13.812;2023-07-13T03:55:40;51691.41;;;-146.96;67.97
39105;BME280;46464;51.154;13.812;2023-07-13T03:58:27;51669.03;;;-146.96;67.93
39105;BME280;46464;51.154;13.812;2023-07-13T04:00:55;51691.41;;;-146.96;68.18
39105;BME280;46464;51.154;13.812;2023-07-13T04:03:21;51711.75;;;-146.96;68.26
39105;BME280;46464;51.154;13.812;2023-07-13T04:05:48;51673.09;;;-146.96;68.10
39105;BME280;46464;51.154;13.812;2023-07-13T04:08:15;51662.94;;;-146.96;68.03
39105;BME280;46464;51.154;13.812;2023-07-13T04:10:43;51683.28;;;-146.96;67.86
39105;BME280;46464;51.154;13.812;2023-07-13T04:13:09;51662.94;;;-146.96;68.06
39105;BME280;46464;51.154;13.812;2023-07-13T04:15:36;51669.03;;;-146.96;69.03
39105;BME280;46464;51.154;13.812;2023-07-13T04:18:02;51679.19;;;-146.96;69.43
39105;BME280;46464;51.154;13.812;2023-07-13T04:20:29;51660.88;;;-146.96;69.14
39105;BME280;46464;51.154;13.812;2023-07-13T04:22:56;51650.72;;;-146.96;69.22
39105;BME280;46464;51.154;13.812;2023-07-13T04:25:24;51660.88;;;-146.96;69.95
39105;BME280;46464;51.154;13.812;2023-07-13T04:27:50;51650.72;;;-146.96;69.38
39105;BME280;46464;51.154;13.812;2023-07-13T04:30:19;51654.78;;;-146.96;69.39
39105;BME280;46464;51.154;13.812;2023-07-13T04:32:46;51662.94;;;-146.96;68.86
39105;BME280;46464;51.154;13.812;2023-07-13T04:35:13;51673.09;;;-146.96;69.02
39105;BME280;46464;51.154;13.812;2023-07-13T04:37:40;51640.53;;;-146.96;68.80
39105;BME280;46464;51.154;13.812;2023-07-13T04:40:07;51630.38;;;-146.96;69.48
39105;BME280;46464;51.154;13.812;2023-07-13T04:42:38;51652.75;;;-146.96;68.88
39105;BME280;46464;51.154;13.812;2023-07-13T04:45:08;51644.63;;;-146.96;68.97
39105;BME280;46464;51.154;13.812;2023-07-13T04:47:34;51640.53;;;-146.96;68.76
39105;BME280;46464;51.154;13.812;2023-07-13T04:50:01;51685.31;;;-146.96;68.70
39105;BME280;46464;51.154;13.812;2023-07-13T04:52:28;51677.16;;;-146.96;68.46
39105;BME280;46464;51.154;13.812;2023-07-13T04:54:55;51642.59;;;-146.96;68.93
39105;BME280;46464;51.154;13.812;2023-07-13T04:57:21;51638.50;;;-146.96;68.97
39105;BME280;46464;51.154;13.812;2023-07-13T04:59:48;51642.59;;;-146.96;69.17
39105;BME280;46464;51.154;13.812;2023-07-13T05:02:14;51638.50;;;-146.96;68.71
39105;BME280;46464;51.154;13.812;2023-07-13T05:04:41;51638.50;;;-146.96;69.20
39105;BME280;46464;51.154;13.812;2023-07-13T05:07:08;51646.66;;;-146.96;69.16
39105;BME280;46464;51.154;13.812;2023-07-13T05:09:34;51636.47;;;-146.96;68.69
39105;BME280;46464;51.154;13.812;2023-07-13T05:12:01;51614.09;;;-146.96;68.26
39105;BME280;46464;51.154;13.812;2023-07-13T05:14:27;51577.47;;;-146.96;64.88
39105;BME280;46464;51.154;13.812;2023-07-13T05:16:54;51589.69;;;-146.96;61.55
39105;BME280;46464;51.154;13.812;2023-07-13T05:19:20;51571.38;;;-146.96;61.31
39105;BME280;46464;51.154;13.812;2023-07-13T05:21:47;51593.75;;;-146.96;61.29
39105;BME280;46464;51.154;13.812;2023-07-13T05:24:13;51597.81;;;-146.96;60.71
39105;BME280;46464;51.154;13.812;2023-07-13T05:26:50;51565.28;;;-146.96;60.54
39105;BME280;46464;51.154;13.812;2023-07-13T05:29:17;51542.91;;;-146.96;60.21
39105;BME280;46464;51.154;13.812;2023-07-13T05:31:43;51530.69;;;-146.96;59.39
39105;BME280;46464;51.154;13.812;2023-07-13T05:34:10;51528.66;;;-146.96;59.02
39105;BME280;46464;51.154;13.812;2023-07-13T05:36:36;51506.28;;;-146.96;55.93
39105;BME280;46464;51.154;13.812;2023-07-13T05:39:03;51506.28;;;-146.96;54.75
39105;BME280;46464;51.154;13.812;2023-07-13T05:41:30;51492.03;;;-146.96;52.08
39105;BME280;46464;51.154;13.812;2023-07-13T05:43:56;51481.88;;;-146.96;55.03
39105;BME280;46464;51.154;13.812;2023-07-13T05:46:23;51465.59;;;-146.96;53.00
39105;BME280;46464;51.154;13.812;2023-07-13T05:48:50;51459.50;;;-146.96;51.44
39105;BME280;46464;51.154;13.812;2023-07-13T05:51:17;51467.63;;;-146.96;50.50
39105;BME280;46464;51.154;13.812;2023-07-13T05:53:43;51439.16;;;-146.96;50.50
39105;BME280;46464;51.154;13.812;2023-07-13T05:56:10;51408.63;;;-146.96;47.65
39105;BME280;46464;51.154;13.812;2023-07-13T05:58:37;51349.63;;;-146.96;45.39
39105;BME280;46464;51.154;13.812;2023-07-13T06:01:07;51317.09;;;-146.96;44.80
39105;BME280;46464;51.154;13.812;2023-07-13T06:03:35;51302.84;;;-146.96;43.06
39105;BME280;46464;51.154;13.812;2023-07-13T06:06:05;51288.63;;;-146.96;41.32
39105;BME280;46464;51.154;13.812;2023-07-13T06:08:32;51235.72;;;-146.96;40.95
39105;BME280;46464;51.154;13.812;2023-07-13T06:11:28;51264.19;;;-146.96;41.63
39105;BME280;46464;51.154;13.812;2023-07-13T06:13:56;51245.91;;;-146.96;41.69
39105;BME280;46464;51.154;13.812;2023-07-13T06:16:23;51211.31;;;-146.96;40.59
39105;BME280;46464;51.154;13.812;2023-07-13T06:18:50;51166.56;;;-146.96;40.67
39105;BME280;46464;51.154;13.812;2023-07-13T06:21:19;51227.59;;;-146.96;40.13
39105;BME280;46464;51.154;13.812;2023-07-13T06:23:48;51235.72;;;-146.96;40.74
39105;BME280;46464;51.154;13.812;2023-07-13T06:26:16;51227.59;;;-146.96;41.08
39105;BME280;46464;51.154;13.812;2023-07-13T06:28:42;51239.78;;;-146.96;40.45
39105;BME280;46464;51.154;13.812;2023-07-13T06:31:09;51276.41;;;-146.96;40.91
39105;BME280;46464;51.154;13.812;2023-07-13T06:33:37;51215.38;;;-146.96;41.20
39105;BME280;46464;51.154;13.812;2023-07-13T06:36:04;51233.69;;;-146.96;41.13
39105;BME280;46464;51.154;13.812;2023-07-13T06:38:31;51209.28;;;-146.96;40.22
39105;BME280;46464;51.154;13.812;2023-07-13T06:40:58;51229.63;;;-146.96;40.43
39105;BME280;46464;51.154;13.812;2023-07-13T06:43:25;51176.72;;;-146.96;41.60
39105;BME280;46464;51.154;13.812;2023-07-13T06:45:55;51211.31;;;-146.96;40.31
39105;BME280;46464;51.154;13.812;2023-07-13T06:48:22;51243.88;;;-146.96;40.84
39105;BME280;46464;51.154;13.812;2023-07-13T06:50:50;51327.25;;;-146.96;42.58
39105;BME280;46464;51.154;13.812;2023-07-13T06:53:19;51284.53;;;-146.96;42.87
39105;BME280;46464;51.154;13.812;2023-07-13T06:55:46;51296.75;;;-146.96;43.75
39105;BME280;46464;51.154;13.812;2023-07-13T06:58:14;51327.25;;;-146.96;44.62
39105;BME280;46464;51.154;13.812;2023-07-13T07:00:40;51319.13;;;-146.96;44.62
39105;BME280;46464;51.154;13.812;2023-07-13T07:03:07;51317.09;;;-146.96;45.49
39105;BME280;46464;51.154;13.812;2023-07-13T07:05:34;51369.97;;;-146.96;45.68
39105;BME280;46464;51.154;13.812;2023-07-13T07:08:01;51388.28;;;-146.96;47.16
39105;BME280;46464;51.154;13.812;2023-07-13T07:10:28;51380.16;;;-146.96;46.25
39105;BME280;46464;51.154;13.812;2023-07-13T07:12:55;51341.50;;;-146.96;47.87
39105;BME280;46464;51.154;13.812;2023-07-13T07:15:22;51321.16;;;-146.96;45.13
39105;BME280;46464;51.154;13.812;2023-07-13T07:17:49;51304.88;;;-146.96;44.29
39105;BME280;46464;51.154;13.812;2023-07-13T07:20:15;51343.53;;;-146.96;44.59
39105;BME280;46464;51.154;13.812;2023-07-13T07:22:42;51406.59;;;-146.96;45.04
39105;BME280;46464;51.154;13.812;2023-07-13T07:25:09;51333.38;;;-146.96;44.27
39105;BME280;46464;51.154;13.812;2023-07-13T07:27:35;51341.50;;;-146.96;44.33
39105;BME280;46464;51.154;13.812;2023-07-13T07:30:05;51394.41;;;-146.96;43.27
39105;BME280;46464;51.154;13.812;2023-07-13T07:32:34;51386.25;;;-146.96;43.70
39105;BME280;46464;51.154;13.812;2023-07-13T07:35:04;51410.66;;;-146.96;44.78
39105;BME280;46464;51.154;13.812;2023-07-13T07:37:31;51414.75;;;-146.96;44.27
39105;BME280;46464;51.154;13.812;2023-07-13T07:40:00;51386.25;;;-146.96;43.18
39105;BME280;46464;51.154;13.812;2023-07-13T07:42:30;51374.06;;;-146.96;42.49
39105;BME280;46464;51.154;13.812;2023-07-13T07:44:56;51408.63;;;-146.96;43.01
39105;BME280;46464;51.154;13.812;2023-07-13T07:47:23;51380.16;;;-146.96;43.28
39105;BME280;46464;51.154;13.812;2023-07-13T07:49:50;51363.88;;;-146.96;42.53
39105;BME280;46464;51.154;13.812;2023-07-13T07:52:16;51396.44;;;-146.96;43.40
39105;BME280;46464;51.154;13.812;2023-07-13T07:54:43;51386.25;;;-146.96;43.55
39105;BME280;46464;51.154;13.812;2023-07-13T07:57:13;51376.09;;;-146.96;43.24
39105;BME280;46464;51.154;13.812;2023-07-13T07:59:42;51365.91;;;-146.96;42.05
39105;BME280;46464;51.154;13.812;2023-07-13T08:02:11;51386.25;;;-146.96;42.55
39105;BME280;46464;51.154;13.812;2023-07-13T08:04:58;51400.50;;;-146.96;42.83
39105;BME280;46464;51.154;13.812;2023-07-13T08:07:30;51380.16;;;-146.96;42.67
39105;BME280;46464;51.154;13.812;2023-07-13T08:09:57;51396.44;;;-146.96;42.72
39105;BME280;46464;51.154;13.812;2023-07-13T08:12:23;51345.56;;;-146.96;42.81
39105;BME280;46464;51.154;13.812;2023-07-13T08:14:53;51382.19;;;-146.96;42.63
39105;BME280;46464;51.154;13.812;2023-07-13T08:17:25;51384.22;;;-146.96;42.28
39105;BME280;46464;51.154;13.812;2023-07-13T08:19:52;51380.16;;;-146.96;43.38
39105;BME280;46464;51.154;13.812;2023-07-13T08:22:19;51378.13;;;-146.96;43.36
39105;BME280;46464;51.154;13.812;2023-07-13T08:24:45;51317.09;;;-146.96;41.46
39105;BME280;46464;51.154;13.812;2023-07-13T08:27:13;51333.38;;;-146.96;41.80
39105;BME280;46464;51.154;13.812;2023-07-13T08:29:40;51345.56;;;-146.96;40.71
39105;BME280;46464;51.154;13.812;2023-07-13T08:32:07;51323.19;;;-146.96;40.48
39105;BME280;46464;51.154;13.812;2023-07-13T08:34:37;51353.72;;;-146.96;40.91
39105;BME280;46464;51.154;13.812;2023-07-13T08:37:06;51369.97;;;-146.96;41.07
39105;BME280;46464;51.154;13.812;2023-07-13T08:39:33;51378.13;;;-146.96;40.92
39105;BME280;46464;51.154;13.812;2023-07-13T08:42:09;51331.34;;;-146.96;40.96
39105;BME280;46464;51.154;13.812;2023-07-13T08:47:26;51351.69;;;-146.96;40.42
39105;BME280;46464;51.154;13.812;2023-07-13T08:49:54;51333.38;;;-146.96;40.69
39105;BME280;46464;51.154;13.812;2023-07-13T08:52:31;51317.09;;;-146.96;41.08
39105;BME280;46464;51.154;13.812;2023-07-13T08:55:06;51308.97;;;-146.96;41.11
39105;BME280;46464;51.154;13.812;2023-07-13T08:57:37;51321.16;;;-146.96;39.47
39105;BME280;46464;51.154;13.812;2023-07-13T09:00:10;51304.88;;;-146.96;39.68
39105;BME280;46464;51.154;13.812;2023-07-13T09:02:44;51306.91;;;-146.96;40.52
39105;BME280;46464;51.154;13.812;2023-07-13T09:05:22;51313.03;;;-146.96;40.47
39105;BME280;46464;51.154;13.812;2023-07-13T09:08:12;51363.88;;;-146.96;40.39
39105;BME280;46464;51.154;13.812;2023-07-13T09:10:49;51339.47;;;-146.96;41.60
39105;BME280;46464;51.154;13.812;2023-07-13T09:13:24;51327.25;;;-146.96;39.90
39105;BME280;46464;51.154;13.812;2023-07-13T09:15:55;51296.75;;;-146.96;40.57
39105;BME280;46464;51.154;13.812;2023-07-13T09:18:37;51331.34;;;-146.96;40.31
39105;BME280;46464;51.154;13.812;2023-07-13T09:21:30;51323.19;;;-146.96;40.09
39105;BME280;46464;51.154;13.812;2023-07-13T09:24:01;51313.03;;;-146.96;41.16
39105;BME280;46464;51.154;13.812;2023-07-13T09:26:29;51247.94;;;-146.96;40.80
39105;BME280;46464;51.154;13.812;2023-07-13T09:29:20;51296.75;;;-146.96;39.73
39105;BME280;46464;51.154;13.812;2023-07-13T09:31:53;51282.50;;;-146.96;39.88
39105;BME280;46464;51.154;13.812;2023-07-13T09:34:20;51260.13;;;-146.96;40.84
39105;BME280;46464;51.154;13.812;2023-07-13T09:36:47;51274.38;;;-146.96;39.64
39105;BME280;46464;51.154;13.812;2023-07-13T09:39:31;51313.03;;;-146.96;40.68
39105;BME280;46464;51.154;13.812;2023-07-13T09:42:20;51319.13;;;-146.96;39.40
39105;BME280;46464;51.154;13.812;2023-07-13T09:44:55;51270.31;;;-146.96;38.52
39105;BME280;46464;51.154;13.812;2023-07-13T09:47:27;51331.34;;;-146.96;39.17
39105;BME280;46464;51.154;13.812;2023-07-13T09:50:03;51294.72;;;-146.96;39.66
39105;BME280;46464;51.154;13.812;2023-07-13T09:52:44;51278.44;;;-146.96;38.46
39105;BME280;46464;51.154;13.812;2023-07-13T09:55:32;51260.13;;;-146.96;37.46
39105;BME280;46464;51.154;13.812;2023-07-13T09:58:15;51258.09;;;-146.96;37.97
39105;BME280;46464;51.154;13.812;2023-07-13T10:00:54;51272.34;;;-146.96;38.49
39105;BME280;46464;51.154;13.812;2023-07-13T10:03:28;51241.81;;;-146.96;38.74
39105;BME280;46464;51.154;13.812;2023-07-13T10:06:06;51233.69;;;-146.96;38.32
39105;BME280;46464;51.154;13.812;2023-07-13T10:08:37;51215.38;;;-146.96;35.69
39105;BME280;46464;51.154;13.812;2023-07-13T10:11:12;51235.72;;;-146.96;35.90
39105;BME280;46464;51.154;13.812;2023-07-13T10:13:49;51199.09;;;-146.96;36.47
39105;BME280;46464;51.154;13.812;2023-07-13T10:16:17;51195.03;;;-146.96;36.47
39105;BME280;46464;51.154;13.812;2023-07-13T10:18:46;51184.88;;;-146.96;35.14
39105;BME280;46464;51.154;13.812;2023-07-13T10:21:22;51186.91;;;-146.96;36.28
39105;BME280;46464;51.154;13.812;2023-07-13T10:24:20;51176.72;;;-146.96;35.26
39105;BME280;46464;51.154;13.812;2023-07-13T10:27:00;51233.69;;;-146.96;35.09
39105;BME280;46464;51.154;13.812;2023-07-13T10:29:36;51249.97;;;-146.96;35.32
39105;BME280;46464;51.154;13.812;2023-07-13T10:32:09;51243.88;;;-146.96;36.15
39105;BME280;46464;51.154;13.812;2023-07-13T10:34:39;51252.00;;;-146.96;36.60
39105;BME280;46464;51.154;13.812;2023-07-13T10:37:07;51207.25;;;-146.96;36.47
39105;BME280;46464;51.154;13.812;2023-07-13T10:39:42;51235.72;;;-146.96;36.58
39105;BME280;46464;51.154;13.812;2023-07-13T10:42:15;51237.75;;;-146.96;35.49
39105;BME280;46464;51.154;13.812;2023-07-13T10:44:44;51215.38;;;-146.96;35.91
39105;BME280;46464;51.154;13.812;2023-07-13T10:47:12;51205.22;;;-146.96;35.83
39105;BME280;46464;51.154;13.812;2023-07-13T10:49:40;51174.69;;;-146.96;36.69
39105;BME280;46464;51.154;13.812;2023-07-13T10:52:40;51186.91;;;-146.96;35.49
39105;BME280;46464;51.154;13.812;2023-07-13T10:55:34;51195.03;;;-146.96;35.66
39105;BME280;46464;51.154;13.812;2023-07-13T10:58:13;51205.22;;;-146.96;36.18
39105;BME280;46464;51.154;13.812;2023-07-13T11:00:47;51205.22;;;-146.96;35.79
39105;BME280;46464;51.154;13.812;2023-07-13T11:03:17;51211.31;;;-146.96;36.00
39105;BME280;46464;51.154;13.812;2023-07-13T11:05:48;51235.72;;;-146.96;36.90
39105;BME280;46464;51.154;13.812;2023-07-13T11:08:34;51254.03;;;-146.96;35.98
39105;BME280;46464;51.154;13.812;2023-07-13T11:19:24;51292.69;;;-146.96;35.97
39105;BME280;46464;51.154;13.812;2023-07-13T11:25:00;51284.53;;;-146.96;36.48
39105;BME280;46464;51.154;13.812;2023-07-13T11:27:35;51268.28;;;-146.96;36.49
39105;BME280;46464;51.154;13.812;2023-07-13T11:35:35;51239.78;;;-146.96;34.47
39105;BME280;46464;51.154;13.812;2023-07-13T11:38:12;51252.00;;;-146.96;35.23
39105;BME280;46464;51.154;13.812;2023-07-13T11:40:40;51243.88;;;-146.96;37.57
39105;BME280;46464;51.154;13.812;2023-07-13T11:43:07;51278.44;;;-146.96;38.88
39105;BME280;46464;51.154;13.812;2023-07-13T11:45:33;51292.69;;;-146.96;38.31
39105;BME280;46464;51.154;13.812;2023-07-13T11:48:28;51290.66;;;-146.96;38.98
39105;BME280;46464;51.154;13.812;2023-07-13T11:50:58;51313.03;;;-146.96;39.29
39105;BME280;46464;51.154;13.812;2023-07-13T11:53:28;51327.25;;;-146.96;39.53
39105;BME280;46464;51.154;13.812;2023-07-13T11:55:57;51247.94;;;-146.96;38.81
39105;BME280;46464;51.154;13.812;2023-07-13T11:58:25;51235.72;;;-146.96;37.82
39105;BME280;46464;51.154;13.812;2023-07-13T12:00:52;51195.03;;;-146.96;37.46
39105;BME280;46464;51.154;13.812;2023-07-13T12:03:22;51170.63;;;-146.96;36.44
39105;BME280;46464;51.154;13.812;2023-07-13T12:08:24;51170.63;;;-146.96;36.09
39105;BME280;46464;51.154;13.812;2023-07-13T12:11:04;51146.22;;;-146.96;36.08
39105;BME280;46464;51.154;13.812;2023-07-13T12:13:36;51197.06;;;-146.96;34.64
39105;BME280;46464;51.154;13.812;2023-07-13T12:16:11;51180.81;;;-146.96;36.28
39105;BME280;46464;51.154;13.812;2023-07-13T12:18:39;51176.72;;;-146.96;34.78
39105;BME280;46464;51.154;13.812;2023-07-13T12:21:12;51146.22;;;-146.96;34.04
39105;BME280;46464;51.154;13.812;2023-07-13T12:23:43;51174.69;;;-146.96;33.75
39105;BME280;46464;51.154;13.812;2023-07-13T12:26:11;51162.50;;;-146.96;33.92
39105;BME280;46464;51.154;13.812;2023-07-13T12:28:52;51193.00;;;-146.96;33.95
39105;BME280;46464;51.154;13.812;2023-07-13T12:34:11;51138.09;;;-146.96;32.32
39105;BME280;46464;51.154;13.812;2023-07-13T12:36:46;51115.72;;;-146.96;32.20
39105;BME280;46464;51.154;13.812;2023-07-13T12:39:32;51136.06;;;-146.96;32.55
39105;BME280;46464;51.154;13.812;2023-07-13T12:44:45;51148.25;;;-146.96;31.68
39105;BME280;46464;51.154;13.812;2023-07-13T12:47:14;51115.72;;;-146.96;32.03
39105;BME280;46464;51.154;13.812;2023-07-13T12:49:48;51119.78;;;-146.96;31.28
39105;BME280;46464;51.154;13.812;2023-07-13T12:52:24;51107.56;;;-146.96;30.23
39105;BME280;46464;51.154;13.812;2023-07-13T12:55:12;51144.19;;;-146.96;31.35
39105;BME280;46464;51.154;13.812;2023-07-13T12:57:52;51140.13;;;-146.96;31.00
39105;BME280;46464;51.154;13.812;2023-07-13T13:00:33;51174.69;;;-146.96;31.80
39105;BME280;46464;51.154;13.812;2023-07-13T13:03:21;51152.31;;;-146.96;31.79
39105;BME280;46464;51.154;13.812;2023-07-13T13:09:39;51178.78;;;-146.96;33.28
39105;BME280;46464;51.154;13.812;2023-07-13T13:12:06;51184.88;;;-146.96;32.41
39105;BME280;46464;51.154;13.812;2023-07-13T13:14:33;51209.28;;;-146.96;32.46
39105;BME280;46464;51.154;13.812;2023-07-13T13:16:59;51201.16;;;-146.96;33.20